Time;durP1;ratioP1;P1;durP2;ratioP2;P2;SDS_P1;SDS_P2;PMS_P1;PMS_P2;Temp;Humidity;BMP_temperature;BMP_pressure;BME280_temperature;BME280_humidity;BME280_pressure;Samples;Min_cycle;Max_cycle;Signal;HPM_P1;HPM_P2
2023/10/22 00:01:10;;;;;;;51.90;32.80;;;;;;;13.76;93.45;97541.95;436224;1253;99848;-41
2023/10/22 00:11:14;;;;;;;37.00;22.20;;;;;;;13.97;93.63;97544.36;436461;1247;111179;-42
2023/10/22 00:21:17;;;;;;;40.60;23.40;;;;;;;14.16;94.03;97536.86;436258;1247;108091;-41
2023/10/22 00:31:21;;;;;;;37.80;24.80;;;;;;;14.22;94.16;97540.28;436336;1253;99221;-41
2023/10/22 00:41:24;;;;;;;40.20;25.10;;;;;;;14.20;94.66;97527.90;435882;1252;520254;-41
2023/10/22 00:51:53;;;;;;;34.10;19.90;;;;;;;14.15;95.33;97521.61;436293;1253;99963;-40
2023/10/22 01:01:56;;;;;;;26.50;18.30;;;;;;;14.13;96.37;97515.98;436223;1253;110933;-41
2023/10/22 01:12:01;;;;;;;28.40;16.00;;;;;;;14.13;97.38;97505.67;437104;1247;109012;-37
2023/10/22 01:22:05;;;;;;;27.00;14.50;;;;;;;14.15;98.19;97488.70;435318;1255;99241;-40
2023/10/22 01:32:08;;;;;;;21.00;10.80;;;;;;;14.19;98.55;97481.77;435133;1254;108179;-41
2023/10/22 01:42:12;;;;;;;14.70;9.10;;;;;;;14.24;98.86;97479.59;435226;1253;99237;-40
2023/10/22 01:52:15;;;;;;;15.10;8.50;;;;;;;14.31;98.80;97486.20;435404;1253;112074;-40
2023/10/22 02:02:19;;;;;;;16.10;9.20;;;;;;;14.41;98.73;97490.79;435409;1263;107149;-41
2023/10/22 02:12:26;;;;;;;20.60;12.80;;;;;;;14.50;98.75;97485.47;435301;1255;99224;-40
2023/10/22 02:32:33;;;;;;;23.50;15.00;;;;;;;14.50;98.30;97458.23;435227;1263;99385;-39
2023/10/22 02:42:37;;;;;;;25.60;18.50;;;;;;;14.42;98.05;97461.64;435399;1253;111751;-40
2023/10/22 02:52:40;;;;;;;36.20;21.90;;;;;;;14.35;98.00;97456.96;435224;1263;108210;-40
2023/10/22 03:02:43;;;;;;;32.30;22.20;;;;;;;14.36;97.97;97450.16;435230;1255;99262;-42
2023/10/22 03:12:47;;;;;;;32.40;21.00;;;;;;;14.34;97.94;97451.55;435387;1253;107016;-40
2023/10/22 03:22:51;;;;;;;31.50;22.10;;;;;;;14.31;98.15;97455.20;435300;1253;99351;-41
2023/10/22 03:42:59;;;;;;;30.90;20.10;;;;;;;14.35;97.87;97448.67;435146;1254;108111;-40
2023/10/22 03:53:03;;;;;;;29.80;18.40;;;;;;;14.38;98.17;97445.70;435378;1254;99709;-40
2023/10/22 04:03:07;;;;;;;29.50;20.60;;;;;;;14.37;97.91;97442.42;435201;1254;109397;-40
2023/10/22 04:13:13;;;;;;;35.60;22.20;;;;;;;14.36;97.95;97435.84;435549;1253;99247;-40
2023/10/22 04:23:17;;;;;;;35.40;21.80;;;;;;;14.25;97.81;97434.27;435040;1251;111442;-40
2023/10/22 04:33:20;;;;;;;31.80;19.50;;;;;;;14.14;97.61;97431.50;434966;1254;108380;-41
2023/10/22 04:43:24;;;;;;;27.30;19.50;;;;;;;14.10;97.69;97428.83;435222;1254;99345;-41
2023/10/22 04:53:28;;;;;;;24.70;18.30;;;;;;;14.19;98.08;97441.45;435325;1251;108251;-41
2023/10/22 05:03:33;;;;;;;27.50;18.60;;;;;;;14.24;97.96;97444.92;435299;1254;97922;-40
2023/10/22 05:13:37;;;;;;;35.70;20.90;;;;;;;14.26;97.94;97440.80;435276;1254;112158;-41
2023/10/22 05:23:41;;;;;;;35.10;21.30;;;;;;;14.28;98.11;97447.27;435309;1251;108469;-39
2023/10/22 05:33:45;;;;;;;37.10;24.30;;;;;;;14.41;98.21;97452.66;435471;1254;99629;-41
2023/10/22 05:53:58;;;;;;;40.50;26.40;;;;;;;14.24;97.83;97447.99;435305;1254;98828;-40
2023/10/22 06:04:02;;;;;;;43.70;28.20;;;;;;;14.19;97.93;97447.62;435478;1250;112874;-40
2023/10/22 06:14:06;;;;;;;43.60;30.40;;;;;;;14.27;98.21;97446.70;435313;1254;108630;-42
2023/10/22 06:24:10;;;;;;;36.80;25.40;;;;;;;14.25;98.23;97445.23;435370;1254;99256;-41
2023/10/22 06:34:14;;;;;;;56.70;38.10;;;;;;;14.28;98.36;97438.65;435177;1265;108238;-41
2023/10/22 06:54:21;;;;;;;54.10;39.00;;;;;;;14.39;98.50;97439.14;435338;1251;111751;-41
2023/10/22 07:04:25;;;;;;;34.40;25.40;;;;;;;14.47;98.47;97439.11;435419;1254;109914;-41
2023/10/22 07:14:29;;;;;;;21.50;16.80;;;;;;;14.60;98.64;97437.52;435245;1249;98003;-41
2023/10/22 07:34:35;;;;;;;24.60;20.40;;;;;;;14.62;98.43;97430.89;435219;1265;99915;-42
2023/10/22 07:44:39;;;;;;;16.50;14.40;;;;;;;14.66;98.72;97439.05;435306;1251;111379;-41
2023/10/22 07:54:47;;;;;;;19.90;16.30;;;;;;;14.58;98.28;97448.76;435187;1250;107423;-41
2023/10/22 08:04:50;;;;;;;15.50;12.60;;;;;;;14.68;99.00;97450.45;435330;1253;99246;-41
2023/10/22 08:14:54;;;;;;;14.00;12.30;;;;;;;14.79;98.87;97453.36;435394;1249;107771;-41
2023/10/22 08:24:58;;;;;;;13.70;11.80;;;;;;;14.82;98.77;97454.55;435395;1253;99246;-40
2023/10/22 08:35:06;;;;;;;14.80;11.50;;;;;;;14.93;99.10;97460.70;435266;1253;111987;-41
2023/10/22 08:45:10;;;;;;;14.30;11.20;;;;;;;15.07;99.07;97466.45;435227;1254;106148;-41
2023/10/22 08:55:14;;;;;;;10.50;9.40;;;;;;;15.05;98.92;97465.11;435252;1253;99218;-40
2023/10/22 09:05:19;;;;;;;13.50;11.60;;;;;;;14.98;98.70;97470.85;435301;1249;108300;-42
2023/10/22 09:15:22;;;;;;;13.20;10.80;;;;;;;15.06;98.95;97467.13;435328;1254;99355;-41
2023/10/22 09:35:37;;;;;;;17.40;13.70;;;;;;;15.35;98.87;97470.98;435275;1253;108001;-42
2023/10/22 09:45:42;;;;;;;12.80;10.90;;;;;;;15.57;98.98;97469.57;435503;1253;98021;-41
2023/10/22 09:55:51;;;;;;;9.60;8.10;;;;;;;15.56;98.40;97470.52;435370;1253;107230;-41
2023/10/22 10:05:54;;;;;;;11.10;9.70;;;;;;;15.42;98.31;97472.27;435332;1254;99732;-40
2023/10/22 10:15:58;;;;;;;14.10;9.60;;;;;;;15.57;98.52;97463.89;435277;1254;112027;-40
2023/10/22 10:26:28;;;;;;;6.90;6.30;;;;;;;15.80;98.69;97470.17;435350;1253;107273;-40
2023/10/22 10:36:33;;;;;;;18.60;12.60;;;;;;;15.99;98.82;97485.38;435178;1254;99208;-42
2023/10/22 10:46:36;;;;;;;5.00;4.50;;;;;;;16.05;98.56;97495.41;435259;1253;108139;-40
2023/10/22 10:56:54;;;;;;;6.90;4.80;;;;;;;15.70;98.11;97495.91;435452;1252;99211;-41
2023/10/22 11:06:59;;;;;;;9.80;5.20;;;;;;;15.56;98.17;97495.17;435345;1254;110826;-40
2023/10/22 11:17:21;;;;;;;9.80;7.10;;;;;;;15.64;98.17;97507.85;435279;1249;107210;-40
2023/10/22 11:27:25;;;;;;;8.80;5.90;;;;;;;15.66;98.12;97517.58;435307;1249;99221;-41
2023/10/22 11:37:29;;;;;;;5.80;3.80;;;;;;;15.54;97.99;97522.88;435171;1254;108049;-40
2023/10/22 11:47:33;;;;;;;4.10;3.00;;;;;;;15.42;97.99;97537.76;435370;1250;99212;-41
2023/10/22 11:57:37;;;;;;;4.90;3.30;;;;;;;15.34;98.11;97548.55;435378;1250;112916;-41
2023/10/22 12:07:41;;;;;;;9.30;8.40;;;;;;;15.16;98.24;97560.60;435121;1254;107432;-41
2023/10/22 12:17:48;;;;;;;10.90;6.70;;;;;;;15.01;98.38;97571.80;435172;1253;99234;-41
2023/10/22 12:27:54;;;;;;;9.90;5.20;;;;;;;14.86;98.29;97579.48;435240;1249;107616;-40
2023/10/22 12:37:58;;;;;;;26.50;15.70;;;;;;;14.70;98.50;97590.45;435020;1249;367399;-41
2023/10/22 12:48:01;;;;;;;17.00;7.80;;;;;;;14.54;98.61;97605.27;435291;1254;111853;-41
2023/10/22 12:58:09;;;;;;;20.90;11.60;;;;;;;14.32;98.53;97624.59;435319;1254;107484;-44
2023/10/22 13:08:16;;;;;;;7.60;4.90;;;;;;;13.92;98.10;97640.86;435272;1255;100324;-40
2023/10/22 13:18:20;;;;;;;25.20;14.90;;;;;;;13.62;98.03;97654.61;435071;1254;108387;-41
2023/10/22 13:38:26;;;;;;;27.40;13.60;;;;;;;13.13;98.44;97680.56;435230;1254;111609;-41
2023/10/22 13:48:30;;;;;;;12.10;7.40;;;;;;;12.97;98.49;97691.78;435262;1265;107676;-41
2023/10/22 13:58:33;;;;;;;3.30;2.30;;;;;;;12.82;98.68;97702.63;435251;1253;99224;-42
2023/10/22 14:08:37;;;;;;;3.30;2.60;;;;;;;12.73;98.65;97709.98;435301;1249;108691;-41
2023/10/22 14:18:40;;;;;;;6.70;3.90;;;;;;;12.67;98.74;97721.35;435360;1253;98005;-40
2023/10/22 14:28:43;;;;;;;3.20;1.70;;;;;;;12.68;98.86;97728.51;435237;1254;111308;-41
2023/10/22 14:38:46;;;;;;;14.20;7.10;;;;;;;12.65;98.82;97745.75;435115;1249;108576;-40
2023/10/22 14:48:51;;;;;;;15.60;5.20;;;;;;;12.60;98.83;97767.40;435286;1254;99234;-40
2023/10/22 14:58:55;;;;;;;6.90;2.60;;;;;;;12.54;98.95;97784.23;435243;1249;108260;-41
2023/10/22 15:08:58;;;;;;;8.60;3.50;;;;;;;12.54;99.05;97796.61;435145;1255;99319;-41
2023/10/22 15:19:02;;;;;;;8.30;3.70;;;;;;;12.54;99.16;97816.55;435172;1249;111810;-41
2023/10/22 15:29:05;;;;;;;12.40;7.20;;;;;;;12.51;99.06;97826.23;435213;1255;107251;-42
2023/10/22 15:39:13;;;;;;;11.70;6.60;;;;;;;12.44;99.13;97848.59;435291;1254;98848;-41
2023/10/22 15:49:17;;;;;;;6.30;3.20;;;;;;;12.44;99.28;97861.95;435142;1250;108122;-41
2023/10/22 15:59:20;;;;;;;4.40;2.60;;;;;;;12.38;99.28;97871.70;434983;1254;97934;-40
2023/10/22 16:09:24;;;;;;;4.20;3.00;;;;;;;12.27;99.65;97888.60;435271;1253;110824;-41
2023/10/22 16:19:29;;;;;;;11.40;8.10;;;;;;;12.21;99.56;97908.20;435134;1250;106799;-41
2023/10/22 16:29:34;;;;;;;8.80;6.10;;;;;;;12.16;99.66;97922.65;435237;1253;99194;-42
2023/10/22 16:39:37;;;;;;;6.10;4.20;;;;;;;12.16;99.81;97944.16;435348;1249;108453;-40
2023/10/22 16:49:40;;;;;;;6.00;4.60;;;;;;;12.16;99.73;97952.95;435185;1254;99842;-41
2023/10/22 16:59:44;;;;;;;6.40;4.40;;;;;;;12.11;99.82;97966.77;434915;1255;111708;-40
2023/10/22 17:19:58;;;;;;;12.60;10.40;;;;;;;12.02;100.00;97996.00;435223;1255;99218;-40
2023/10/22 17:30:01;;;;;;;2.10;1.50;;;;;;;12.01;100.00;98010.09;435134;1254;107751;-42
2023/10/22 17:40:06;;;;;;;1.30;1.20;;;;;;;11.97;100.00;98024.42;434969;1255;101555;-39
2023/10/22 17:50:13;;;;;;;11.90;8.10;;;;;;;11.92;100.00;98041.71;435218;1254;110233;-41
2023/10/22 18:00:21;;;;;;;3.50;2.50;;;;;;;11.81;100.00;98058.92;435281;1255;108163;-41
2023/10/22 18:10:24;;;;;;;;;;;;;;;11.74;100.00;98080.45;435302;1254;99244;-40
2023/10/22 18:20:28;;;;;;;3.20;1.50;;;;;;;11.74;100.00;98091.15;435215;1250;108106;-43
2023/10/22 18:30:39;;;;;;;2.30;1.70;;;;;;;11.73;100.00;98113.23;435296;1254;99316;-41
2023/10/22 18:40:46;;;;;;;4.00;2.00;;;;;;;11.68;100.00;98134.86;435189;1252;110268;-40
2023/10/22 18:50:56;;;;;;;2.10;1.90;;;;;;;11.71;100.00;98153.52;435164;1249;108449;-41
2023/10/22 19:00:58;;;;;;;3.70;2.20;;;;;;;11.70;100.00;98168.83;435306;1253;99252;-41
2023/10/22 19:11:02;;;;;;;3.50;2.80;;;;;;;11.65;100.00;98185.14;435266;1250;107998;-41
2023/10/22 19:21:07;;;;;;;2.10;1.90;;;;;;;11.66;100.00;98204.70;435215;1255;98307;-41
2023/10/22 19:31:10;;;;;;;3.20;2.60;;;;;;;11.65;100.00;98230.05;435340;1249;112048;-41
2023/10/22 20:01:27;;;;;;;6.10;2.80;;;;;;;11.66;100.00;98251.90;435263;1255;108549;-40
2023/10/22 20:11:30;;;;;;;3.20;2.60;;;;;;;11.65;100.00;98256.75;435156;1255;99338;-40
2023/10/22 20:31:37;;;;;;;4.50;3.40;;;;;;;11.47;100.00;98271.75;435369;1255;108517;-41
2023/10/22 20:42:05;;;;;;;6.30;4.20;;;;;;;11.37;100.00;98283.06;435352;1253;99247;-40
2023/10/22 20:52:12;;;;;;;4.10;3.70;;;;;;;11.28;100.00;98298.89;435244;1254;107400;-42
2023/10/22 21:02:20;;;;;;;6.40;4.50;;;;;;;11.11;100.00;98295.31;435248;1253;98837;-42
2023/10/22 21:12:24;;;;;;;7.00;4.60;;;;;;;10.98;100.00;98306.28;435198;1256;111338;-41
2023/10/22 21:22:27;;;;;;;12.10;7.30;;;;;;;10.90;100.00;98299.36;435125;1253;107263;-41
2023/10/22 21:32:31;;;;;;;10.50;5.50;;;;;;;10.78;100.00;98311.64;435258;1253;99228;-41
2023/10/22 21:52:38;;;;;;;13.90;5.70;;;;;;;10.39;99.81;98325.46;435316;1255;99325;-41
2023/10/22 22:02:42;;;;;;;13.70;7.40;;;;;;;10.43;99.97;98331.17;435208;1252;112530;-40
2023/10/22 22:12:47;;;;;;;6.90;5.90;;;;;;;10.43;99.76;98342.84;435450;1263;108388;-41
2023/10/22 22:22:54;;;;;;;9.80;7.10;;;;;;;10.34;99.83;98357.73;435326;1255;99252;-41
2023/10/22 22:32:57;;;;;;;13.30;9.10;;;;;;;10.26;99.95;98369.41;435092;1254;107046;-40
2023/10/22 22:43:00;;;;;;;15.50;11.60;;;;;;;10.23;99.97;98379.45;435125;1263;99342;-40
2023/10/22 22:53:04;;;;;;;15.20;12.10;;;;;;;10.29;100.00;98374.95;435473;1263;110988;-41
2023/10/22 23:03:12;;;;;;;13.60;10.30;;;;;;;10.37;100.00;98372.95;435176;1253;107527;-41
2023/10/22 23:13:16;;;;;;;22.30;12.80;;;;;;;10.38;100.00;98370.81;435421;1253;99272;-41
2023/10/22 23:23:19;;;;;;;19.50;12.10;;;;;;;10.42;100.00;98374.13;435383;1254;108851;-40
2023/10/22 23:33:23;;;;;;;21.20;13.00;;;;;;;10.49;100.00;98384.93;435311;1263;100763;-40
2023/10/22 23:43:30;;;;;;;21.40;12.40;;;;;;;10.51;100.00;98396.44;435161;1249;111954;-40
2023/10/22 23:53:37;;;;;;;20.40;13.10;;;;;;;10.53;100.00;98398.54;435169;1254;108412;-41
